sensor_id;sensor_type;location;lat;lon;timestamp;P1;durP1;ratioP1;P2;durP2;ratioP2
9838;SDS011;4958;48.150;11.506;2023-12-29T00:00:21;1.30;;;1.20;;
9838;SDS011;4958;48.150;11.506;2023-12-29T00:02:48;2.40;;;1.50;;
9838;SDS011;4958;48.150;11.506;2023-12-29T00:05:15;1.30;;;1.20;;
9838;SDS011;4958;48.150;11.506;2023-12-29T00:07:41;1.43;;;1.33;;
9838;SDS011;4958;48.150;11.506;2023-12-29T00:10:10;2.37;;;1.50;;
9838;SDS011;4958;48.150;11.506;2023-12-29T00:12:38;1.40;;;1.30;;
9838;SDS011;4958;48.150;11.506;2023-12-29T00:15:06;2.63;;;1.50;;
9838;SDS011;4958;48.150;11.506;2023-12-29T00:17:33;1.67;;;1.20;;
9838;SDS011;4958;48.150;11.506;2023-12-29T00:20:02;1.30;;;1.20;;
9838;SDS011;4958;48.150;11.506;2023-12-29T00:22:32;1.47;;;1.23;;
9838;SDS011;4958;48.150;11.506;2023-12-29T00:24:59;1.47;;;1.23;;
9838;SDS011;4958;48.150;11.506;2023-12-29T00:27:25;2.00;;;1.30;;
9838;SDS011;4958;48.150;11.506;2023-12-29T00:29:52;1.30;;;1.20;;
9838;SDS011;4958;48.150;11.506;2023-12-29T00:32:21;1.20;;;1.10;;
9838;SDS011;4958;48.150;11.506;2023-12-29T00:34:48;1.87;;;1.23;;
9838;SDS011;4958;48.150;11.506;2023-12-29T00:37:14;1.40;;;1.30;;
9838;SDS011;4958;48.150;11.506;2023-12-29T00:39:46;1.50;;;1.30;;
9838;SDS011;4958;48.150;11.506;2023-12-29T00:42:13;2.20;;;1.47;;
9838;SDS011;4958;48.150;11.506;2023-12-29T00:44:39;1.67;;;1.37;;
9838;SDS011;4958;48.150;11.506;2023-12-29T00:47:06;1.40;;;1.30;;
9838;SDS011;4958;48.150;11.506;2023-12-29T00:49:37;1.20;;;1.10;;
9838;SDS011;4958;48.150;11.506;2023-12-29T00:52:07;1.87;;;1.40;;
9838;SDS011;4958;48.150;11.506;2023-12-29T00:54:36;2.03;;;1.13;;
9838;SDS011;4958;48.150;11.506;2023-12-29T00:57:03;1.30;;;1.20;;
9838;SDS011;4958;48.150;11.506;2023-12-29T00:59:29;2.07;;;1.50;;
9838;SDS011;4958;48.150;11.506;2023-12-29T01:01:56;1.47;;;1.37;;
9838;SDS011;4958;48.150;11.506;2023-12-29T01:04:22;2.60;;;1.50;;
9838;SDS011;4958;48.150;11.506;2023-12-29T01:06:58;1.50;;;1.40;;
9838;SDS011;4958;48.150;11.506;2023-12-29T01:09:26;1.40;;;1.30;;
9838;SDS011;4958;48.150;11.506;2023-12-29T01:11:52;1.47;;;1.37;;
9838;SDS011;4958;48.150;11.506;2023-12-29T01:14:19;2.17;;;1.30;;
9838;SDS011;4958;48.150;11.506;2023-12-29T01:16:45;1.77;;;1.50;;
9838;SDS011;4958;48.150;11.506;2023-12-29T01:19:12;1.70;;;1.37;;
9838;SDS011;4958;48.150;11.506;2023-12-29T01:21:38;1.93;;;1.60;;
9838;SDS011;4958;48.150;11.506;2023-12-29T01:24:06;1.30;;;1.20;;
9838;SDS011;4958;48.150;11.506;2023-12-29T01:26:36;1.90;;;1.70;;
9838;SDS011;4958;48.150;11.506;2023-12-29T01:29:02;1.60;;;1.30;;
9838;SDS011;4958;48.150;11.506;2023-12-29T01:31:29;1.53;;;1.30;;
9838;SDS011;4958;48.150;11.506;2023-12-29T01:33:56;1.73;;;1.63;;
9838;SDS011;4958;48.150;11.506;2023-12-29T01:36:22;1.50;;;1.40;;
9838;SDS011;4958;48.150;11.506;2023-12-29T01:38:49;1.73;;;1.40;;
9838;SDS011;4958;48.150;11.506;2023-12-29T01:41:17;3.27;;;1.40;;
9838;SDS011;4958;48.150;11.506;2023-12-29T01:44:02;1.40;;;1.30;;
9838;SDS011;4958;48.150;11.506;2023-12-29T01:46:47;1.70;;;1.50;;
9838;SDS011;4958;48.150;11.506;2023-12-29T01:49:15;1.60;;;1.50;;
9838;SDS011;4958;48.150;11.506;2023-12-29T01:51:43;1.63;;;1.50;;
9838;SDS011;4958;48.150;11.506;2023-12-29T01:54:10;2.17;;;1.60;;
9838;SDS011;4958;48.150;11.506;2023-12-29T01:56:40;1.50;;;1.40;;
9838;SDS011;4958;48.150;11.506;2023-12-29T01:59:09;1.83;;;1.43;;
9838;SDS011;4958;48.150;11.506;2023-12-29T02:01:39;2.00;;;1.80;;
9838;SDS011;4958;48.150;11.506;2023-12-29T02:04:06;1.70;;;1.60;;
9838;SDS011;4958;48.150;11.506;2023-12-29T02:06:35;1.57;;;1.47;;
9838;SDS011;4958;48.150;11.506;2023-12-29T02:09:04;1.80;;;1.47;;
9838;SDS011;4958;48.150;11.506;2023-12-29T02:11:30;1.43;;;1.33;;
9838;SDS011;4958;48.150;11.506;2023-12-29T02:13:59;1.67;;;1.57;;
9838;SDS011;4958;48.150;11.506;2023-12-29T02:16:28;2.57;;;1.73;;
9838;SDS011;4958;48.150;11.506;2023-12-29T02:19:08;1.90;;;1.70;;
9838;SDS011;4958;48.150;11.506;2023-12-29T02:21:47;2.20;;;1.77;;
9838;SDS011;4958;48.150;11.506;2023-12-29T02:24:15;2.60;;;1.53;;
9838;SDS011;4958;48.150;11.506;2023-12-29T02:26:43;1.73;;;1.63;;
9838;SDS011;4958;48.150;11.506;2023-12-29T02:29:13;2.20;;;1.50;;
9838;SDS011;4958;48.150;11.506;2023-12-29T02:31:42;2.17;;;1.70;;
9838;SDS011;4958;48.150;11.506;2023-12-29T02:34:14;1.70;;;1.50;;
9838;SDS011;4958;48.150;11.506;2023-12-29T02:36:44;2.70;;;1.60;;
9838;SDS011;4958;48.150;11.506;2023-12-29T02:39:11;4.27;;;1.70;;
9838;SDS011;4958;48.150;11.506;2023-12-29T02:41:37;2.53;;;1.53;;
9838;SDS011;4958;48.150;11.506;2023-12-29T02:44:05;1.70;;;1.60;;
9838;SDS011;4958;48.150;11.506;2023-12-29T02:46:32;1.60;;;1.50;;
9838;SDS011;4958;48.150;11.506;2023-12-29T02:48:58;1.73;;;1.50;;
9838;SDS011;4958;48.150;11.506;2023-12-29T02:51:27;1.50;;;1.40;;
9838;SDS011;4958;48.150;11.506;2023-12-29T02:53:54;1.60;;;1.40;;
9838;SDS011;4958;48.150;11.506;2023-12-29T02:56:20;2.23;;;1.73;;
9838;SDS011;4958;48.150;11.506;2023-12-29T02:58:47;1.87;;;1.70;;
9838;SDS011;4958;48.150;11.506;2023-12-29T03:01:15;1.90;;;1.70;;
9838;SDS011;4958;48.150;11.506;2023-12-29T03:03:41;4.37;;;1.80;;
9838;SDS011;4958;48.150;11.506;2023-12-29T03:06:08;1.67;;;1.50;;
9838;SDS011;4958;48.150;11.506;2023-12-29T03:08:35;1.70;;;1.60;;
9838;SDS011;4958;48.150;11.506;2023-12-29T03:11:01;1.50;;;1.40;;
9838;SDS011;4958;48.150;11.506;2023-12-29T03:13:28;1.60;;;1.50;;
9838;SDS011;4958;48.150;11.506;2023-12-29T03:15:54;2.47;;;1.83;;
9838;SDS011;4958;48.150;11.506;2023-12-29T03:18:22;2.73;;;2.00;;
9838;SDS011;4958;48.150;11.506;2023-12-29T03:20:48;2.07;;;1.73;;
9838;SDS011;4958;48.150;11.506;2023-12-29T03:23:16;1.90;;;1.60;;
9838;SDS011;4958;48.150;11.506;2023-12-29T03:25:43;2.00;;;1.80;;
9838;SDS011;4958;48.150;11.506;2023-12-29T03:28:09;1.50;;;1.40;;
9838;SDS011;4958;48.150;11.506;2023-12-29T03:30:36;1.97;;;1.50;;
9838;SDS011;4958;48.150;11.506;2023-12-29T03:33:02;1.70;;;1.60;;
9838;SDS011;4958;48.150;11.506;2023-12-29T03:35:30;1.90;;;1.70;;
9838;SDS011;4958;48.150;11.506;2023-12-29T03:37:56;1.50;;;1.40;;
9838;SDS011;4958;48.150;11.506;2023-12-29T03:40:25;1.47;;;1.37;;
9838;SDS011;4958;48.150;11.506;2023-12-29T03:42:51;1.67;;;1.37;;
9838;SDS011;4958;48.150;11.506;2023-12-29T03:45:18;1.70;;;1.57;;
9838;SDS011;4958;48.150;11.506;2023-12-29T03:47:44;1.40;;;1.30;;
9838;SDS011;4958;48.150;11.506;2023-12-29T03:50:11;2.27;;;2.10;;
9838;SDS011;4958;48.150;11.506;2023-12-29T03:52:38;2.60;;;1.60;;
9838;SDS011;4958;48.150;11.506;2023-12-29T03:55:05;1.37;;;1.27;;
9838;SDS011;4958;48.150;11.506;2023-12-29T03:57:32;1.40;;;1.30;;
9838;SDS011;4958;48.150;11.506;2023-12-29T03:59:58;4.10;;;1.50;;
9838;SDS011;4958;48.150;11.506;2023-12-29T04:02:25;1.80;;;1.70;;
9838;SDS011;4958;48.150;11.506;2023-12-29T04:04:53;1.50;;;1.40;;
9838;SDS011;4958;48.150;11.506;2023-12-29T04:07:20;1.73;;;1.50;;
9838;SDS011;4958;48.150;11.506;2023-12-29T04:09:48;1.67;;;1.57;;
9838;SDS011;4958;48.150;11.506;2023-12-29T04:12:15;1.77;;;1.50;;
9838;SDS011;4958;48.150;11.506;2023-12-29T04:14:44;1.57;;;1.47;;
9838;SDS011;4958;48.150;11.506;2023-12-29T04:17:11;1.77;;;1.30;;
9838;SDS011;4958;48.150;11.506;2023-12-29T04:19:39;1.60;;;1.50;;
9838;SDS011;4958;48.150;11.506;2023-12-29T04:22:05;1.47;;;1.37;;
9838;SDS011;4958;48.150;11.506;2023-12-29T04:24:32;2.00;;;1.63;;
9838;SDS011;4958;48.150;11.506;2023-12-29T04:26:59;2.63;;;1.73;;
9838;SDS011;4958;48.150;11.506;2023-12-29T04:29:25;1.83;;;1.57;;
9838;SDS011;4958;48.150;11.506;2023-12-29T04:31:51;2.40;;;1.67;;
9838;SDS011;4958;48.150;11.506;2023-12-29T04:34:18;1.53;;;1.43;;
9838;SDS011;4958;48.150;11.506;2023-12-29T04:36:44;1.90;;;1.60;;
9838;SDS011;4958;48.150;11.506;2023-12-29T04:39:11;1.60;;;1.50;;
9838;SDS011;4958;48.150;11.506;2023-12-29T04:41:37;1.50;;;1.40;;
9838;SDS011;4958;48.150;11.506;2023-12-29T04:44:05;2.20;;;1.70;;
9838;SDS011;4958;48.150;11.506;2023-12-29T04:46:35;1.60;;;1.50;;
9838;SDS011;4958;48.150;11.506;2023-12-29T04:49:01;1.90;;;1.70;;
9838;SDS011;4958;48.150;11.506;2023-12-29T04:51:27;2.10;;;1.57;;
9838;SDS011;4958;48.150;11.506;2023-12-29T04:53:54;1.67;;;1.57;;
9838;SDS011;4958;48.150;11.506;2023-12-29T04:56:20;2.33;;;1.60;;
9838;SDS011;4958;48.150;11.506;2023-12-29T04:58:50;1.70;;;1.60;;
9838;SDS011;4958;48.150;11.506;2023-12-29T05:01:21;2.63;;;1.50;;
9838;SDS011;4958;48.150;11.506;2023-12-29T05:03:50;1.77;;;1.67;;
9838;SDS011;4958;48.150;11.506;2023-12-29T05:06:16;2.13;;;1.50;;
9838;SDS011;4958;48.150;11.506;2023-12-29T05:08:43;2.77;;;1.60;;
9838;SDS011;4958;48.150;11.506;2023-12-29T05:11:09;2.10;;;1.67;;
9838;SDS011;4958;48.150;11.506;2023-12-29T05:13:36;1.70;;;1.60;;
9838;SDS011;4958;48.150;11.506;2023-12-29T05:16:10;3.33;;;1.70;;
9838;SDS011;4958;48.150;11.506;2023-12-29T05:18:38;1.90;;;1.70;;
9838;SDS011;4958;48.150;11.506;2023-12-29T05:21:05;1.70;;;1.60;;
9838;SDS011;4958;48.150;11.506;2023-12-29T05:23:31;2.60;;;1.60;;
9838;SDS011;4958;48.150;11.506;2023-12-29T05:26:12;2.33;;;1.70;;
9838;SDS011;4958;48.150;11.506;2023-12-29T05:28:41;2.97;;;1.90;;
9838;SDS011;4958;48.150;11.506;2023-12-29T05:31:15;2.50;;;1.80;;
9838;SDS011;4958;48.150;11.506;2023-12-29T05:33:59;2.43;;;1.90;;
9838;SDS011;4958;48.150;11.506;2023-12-29T05:36:36;1.93;;;1.60;;
9838;SDS011;4958;48.150;11.506;2023-12-29T05:39:13;2.03;;;1.70;;
9838;SDS011;4958;48.150;11.506;2023-12-29T05:41:43;1.70;;;1.60;;
9838;SDS011;4958;48.150;11.506;2023-12-29T05:44:35;2.30;;;1.80;;
9838;SDS011;4958;48.150;11.506;2023-12-29T05:47:02;2.77;;;1.93;;
9838;SDS011;4958;48.150;11.506;2023-12-29T05:49:30;1.80;;;1.70;;
9838;SDS011;4958;48.150;11.506;2023-12-29T05:51:57;2.10;;;1.60;;
9838;SDS011;4958;48.150;11.506;2023-12-29T05:54:26;2.00;;;1.70;;
9838;SDS011;4958;48.150;11.506;2023-12-29T05:56:52;1.87;;;1.77;;
9838;SDS011;4958;48.150;11.506;2023-12-29T05:59:30;1.70;;;1.60;;
9838;SDS011;4958;48.150;11.506;2023-12-29T06:06:10;1.97;;;1.80;;
9838;SDS011;4958;48.150;11.506;2023-12-29T06:09:11;2.07;;;1.87;;
9838;SDS011;4958;48.150;11.506;2023-12-29T06:18:53;2.27;;;1.63;;
9838;SDS011;4958;48.150;11.506;2023-12-29T06:28:40;1.80;;;1.50;;
9838;SDS011;4958;48.150;11.506;2023-12-29T06:34:36;2.07;;;1.80;;
9838;SDS011;4958;48.150;11.506;2023-12-29T06:37:02;2.60;;;1.80;;
9838;SDS011;4958;48.150;11.506;2023-12-29T06:39:29;3.93;;;1.50;;
9838;SDS011;4958;48.150;11.506;2023-12-29T06:45:13;2.03;;;1.83;;
9838;SDS011;4958;48.150;11.506;2023-12-29T06:47:54;2.37;;;2.17;;
9838;SDS011;4958;48.150;11.506;2023-12-29T06:53:32;4.83;;;3.80;;
9838;SDS011;4958;48.150;11.506;2023-12-29T06:56:15;1.77;;;1.63;;
9838;SDS011;4958;48.150;11.506;2023-12-29T07:20:08;1.60;;;1.40;;
9838;SDS011;4958;48.150;11.506;2023-12-29T07:41:42;2.40;;;1.87;;
9838;SDS011;4958;48.150;11.506;2023-12-29T07:44:34;4.27;;;1.50;;
9838;SDS011;4958;48.150;11.506;2023-12-29T07:47:35;1.50;;;1.40;;
9838;SDS011;4958;48.150;11.506;2023-12-29T07:51:51;1.47;;;1.30;;
9838;SDS011;4958;48.150;11.506;2023-12-29T07:54:03;1.93;;;1.30;;
9838;SDS011;4958;48.150;11.506;2023-12-29T07:56:45;2.03;;;1.47;;
9838;SDS011;4958;48.150;11.506;2023-12-29T07:59:17;1.47;;;1.37;;
9838;SDS011;4958;48.150;11.506;2023-12-29T08:02:02;1.87;;;1.40;;
9838;SDS011;4958;48.150;11.506;2023-12-29T08:05:01;1.60;;;1.50;;
9838;SDS011;4958;48.150;11.506;2023-12-29T08:34:36;2.20;;;2.00;;
9838;SDS011;4958;48.150;11.506;2023-12-29T08:37:25;1.60;;;1.50;;
9838;SDS011;4958;48.150;11.506;2023-12-29T08:39:54;1.50;;;1.40;;
9838;SDS011;4958;48.150;11.506;2023-12-29T08:42:48;2.00;;;1.73;;
9838;SDS011;4958;48.150;11.506;2023-12-29T08:45:20;1.87;;;1.77;;
9838;SDS011;4958;48.150;11.506;2023-12-29T08:48:42;1.63;;;1.53;;
9838;SDS011;4958;48.150;11.506;2023-12-29T08:51:10;2.70;;;1.60;;
9838;SDS011;4958;48.150;11.506;2023-12-29T08:53:53;3.07;;;1.80;;
9838;SDS011;4958;48.150;11.506;2023-12-29T08:57:32;1.80;;;1.70;;
9838;SDS011;4958;48.150;11.506;2023-12-29T09:00:01;1.53;;;1.43;;
9838;SDS011;4958;48.150;11.506;2023-12-29T09:06:23;1.70;;;1.40;;
9838;SDS011;4958;48.150;11.506;2023-12-29T09:12:40;1.50;;;1.40;;
9838;SDS011;4958;48.150;11.506;2023-12-29T09:15:48;1.60;;;1.50;;
9838;SDS011;4958;48.150;11.506;2023-12-29T09:18:17;2.53;;;1.60;;
9838;SDS011;4958;48.150;11.506;2023-12-29T09:25:28;1.50;;;1.40;;
9838;SDS011;4958;48.150;11.506;2023-12-29T09:28:15;2.40;;;1.73;;
9838;SDS011;4958;48.150;11.506;2023-12-29T09:30:41;1.27;;;1.17;;
9838;SDS011;4958;48.150;11.506;2023-12-29T09:33:16;1.40;;;1.30;;
9838;SDS011;4958;48.150;11.506;2023-12-29T09:36:02;1.40;;;1.30;;
9838;SDS011;4958;48.150;11.506;2023-12-29T09:38:54;1.40;;;1.30;;
9838;SDS011;4958;48.150;11.506;2023-12-29T09:45:04;1.67;;;1.40;;
9838;SDS011;4958;48.150;11.506;2023-12-29T09:47:51;1.40;;;1.30;;
9838;SDS011;4958;48.150;11.506;2023-12-29T09:50:45;1.60;;;1.30;;
9838;SDS011;4958;48.150;11.506;2023-12-29T09:53:12;1.30;;;1.20;;
9838;SDS011;4958;48.150;11.506;2023-12-29T09:55:54;1.63;;;1.40;;
9838;SDS011;4958;48.150;11.506;2023-12-29T09:58:38;1.83;;;1.30;;
9838;SDS011;4958;48.150;11.506;2023-12-29T10:01:24;2.33;;;1.30;;
9838;SDS011;4958;48.150;11.506;2023-12-29T10:03:54;1.50;;;1.30;;
9838;SDS011;4958;48.150;11.506;2023-12-29T10:06:41;1.63;;;1.33;;
9838;SDS011;4958;48.150;11.506;2023-12-29T10:09:37;1.23;;;1.13;;
9838;SDS011;4958;48.150;11.506;2023-12-29T10:12:05;1.40;;;1.30;;
9838;SDS011;4958;48.150;11.506;2023-12-29T10:15:06;1.13;;;0.97;;
9838;SDS011;4958;48.150;11.506;2023-12-29T10:17:59;1.27;;;1.10;;
9838;SDS011;4958;48.150;11.506;2023-12-29T10:24:04;0.93;;;0.93;;
9838;SDS011;4958;48.150;11.506;2023-12-29T10:27:11;1.20;;;1.10;;
9838;SDS011;4958;48.150;11.506;2023-12-29T10:32:43;1.07;;;0.97;;
9838;SDS011;4958;48.150;11.506;2023-12-29T10:35:15;1.30;;;1.20;;
9838;SDS011;4958;48.150;11.506;2023-12-29T10:37:45;1.23;;;0.87;;
9838;SDS011;4958;48.150;11.506;2023-12-29T10:40:34;1.33;;;0.90;;
9838;SDS011;4958;48.150;11.506;2023-12-29T10:43:21;1.03;;;0.90;;
9838;SDS011;4958;48.150;11.506;2023-12-29T10:45:48;1.40;;;1.10;;
9838;SDS011;4958;48.150;11.506;2023-12-29T10:51:50;1.03;;;1.00;;
9838;SDS011;4958;48.150;11.506;2023-12-29T10:54:20;1.00;;;0.90;;
9838;SDS011;4958;48.150;11.506;2023-12-29T10:59:44;1.30;;;1.10;;
9838;SDS011;4958;48.150;11.506;2023-12-29T11:02:42;1.30;;;0.80;;
9838;SDS011;4958;48.150;11.506;2023-12-29T11:05:10;1.00;;;1.00;;
9838;SDS011;4958;48.150;11.506;2023-12-29T11:07:42;0.80;;;0.80;;
9838;SDS011;4958;48.150;11.506;2023-12-29T11:13:57;2.10;;;1.00;;
9838;SDS011;4958;48.150;11.506;2023-12-29T11:54:35;2.00;;;1.30;;
9838;SDS011;4958;48.150;11.506;2023-12-29T11:57:38;2.20;;;1.23;;
9838;SDS011;4958;48.150;11.506;2023-12-29T12:03:46;2.13;;;1.40;;
9838;SDS011;4958;48.150;11.506;2023-12-29T12:06:19;1.37;;;1.20;;
9838;SDS011;4958;48.150;11.506;2023-12-29T12:09:34;1.53;;;1.40;;
9838;SDS011;4958;48.150;11.506;2023-12-29T12:12:43;1.30;;;1.20;;
9838;SDS011;4958;48.150;11.506;2023-12-29T12:15:54;2.90;;;1.40;;
9838;SDS011;4958;48.150;11.506;2023-12-29T12:18:25;1.30;;;1.20;;
9838;SDS011;4958;48.150;11.506;2023-12-29T12:21:02;2.40;;;1.13;;
9838;SDS011;4958;48.150;11.506;2023-12-29T12:23:40;1.47;;;1.23;;
9838;SDS011;4958;48.150;11.506;2023-12-29T12:35:20;2.20;;;1.40;;
9838;SDS011;4958;48.150;11.506;2023-12-29T12:38:16;1.20;;;1.10;;
9838;SDS011;4958;48.150;11.506;2023-12-29T12:41:33;1.60;;;0.90;;
9838;SDS011;4958;48.150;11.506;2023-12-29T12:45:26;1.27;;;1.17;;
9838;SDS011;4958;48.150;11.506;2023-12-29T12:47:26;1.20;;;1.10;;
9838;SDS011;4958;48.150;11.506;2023-12-29T12:50:42;1.10;;;1.10;;
9838;SDS011;4958;48.150;11.506;2023-12-29T12:56:25;1.43;;;1.10;;
9838;SDS011;4958;48.150;11.506;2023-12-29T12:58:54;1.77;;;1.17;;
9838;SDS011;4958;48.150;11.506;2023-12-29T13:01:42;1.83;;;1.07;;
9838;SDS011;4958;48.150;11.506;2023-12-29T13:04:39;1.40;;;1.07;;
9838;SDS011;4958;48.150;11.506;2023-12-29T13:07:47;0.90;;;0.90;;
9838;SDS011;4958;48.150;11.506;2023-12-29T13:10:13;1.67;;;1.10;;
9838;SDS011;4958;48.150;11.506;2023-12-29T13:13:00;1.10;;;1.00;;
9838;SDS011;4958;48.150;11.506;2023-12-29T13:15:47;3.00;;;2.70;;
9838;SDS011;4958;48.150;11.506;2023-12-29T13:18:27;1.30;;;1.20;;
9838;SDS011;4958;48.150;11.506;2023-12-29T13:21:25;1.63;;;1.10;;
9838;SDS011;4958;48.150;11.506;2023-12-29T13:27:04;0.90;;;0.90;;
9838;SDS011;4958;48.150;11.506;2023-12-29T13:29:42;0.83;;;0.83;;
9838;SDS011;4958;48.150;11.506;2023-12-29T13:33:02;1.10;;;0.90;;
9838;SDS011;4958;48.150;11.506;2023-12-29T13:36:21;2.03;;;1.00;;
9838;SDS011;4958;48.150;11.506;2023-12-29T13:42:42;0.93;;;0.90;;
9838;SDS011;4958;48.150;11.506;2023-12-29T13:45:21;1.07;;;0.90;;
9838;SDS011;4958;48.150;11.506;2023-12-29T13:47:57;2.30;;;1.07;;
9838;SDS011;4958;48.150;11.506;2023-12-29T13:50:27;1.07;;;1.00;;
9838;SDS011;4958;48.150;11.506;2023-12-29T13:53:04;1.03;;;0.80;;
9838;SDS011;4958;48.150;11.506;2023-12-29T13:58:54;2.20;;;1.03;;
9838;SDS011;4958;48.150;11.506;2023-12-29T14:09:06;1.53;;;1.00;;
9838;SDS011;4958;48.150;11.506;2023-12-29T14:15:19;1.30;;;1.10;;
9838;SDS011;4958;48.150;11.506;2023-12-29T14:18:03;1.17;;;1.07;;
9838;SDS011;4958;48.150;11.506;2023-12-29T14:20:40;1.27;;;1.00;;
9838;SDS011;4958;48.150;11.506;2023-12-29T14:23:23;1.17;;;1.07;;
9838;SDS011;4958;48.150;11.506;2023-12-29T14:26:04;2.47;;;2.27;;
9838;SDS011;4958;48.150;11.506;2023-12-29T14:29:03;2.00;;;0.83;;
9838;SDS011;4958;48.150;11.506;2023-12-29T14:31:50;1.10;;;1.00;;
9838;SDS011;4958;48.150;11.506;2023-12-29T14:34:39;2.03;;;0.90;;
9838;SDS011;4958;48.150;11.506;2023-12-29T14:37:16;0.93;;;0.90;;
9838;SDS011;4958;48.150;11.506;2023-12-29T14:39:55;1.27;;;0.90;;
9838;SDS011;4958;48.150;11.506;2023-12-29T14:42:42;1.00;;;0.90;;
9838;SDS011;4958;48.150;11.506;2023-12-29T14:45:23;1.23;;;0.90;;
9838;SDS011;4958;48.150;11.506;2023-12-29T14:48:02;1.00;;;0.90;;
9838;SDS011;4958;48.150;11.506;2023-12-29T14:50:50;0.80;;;0.80;;
9838;SDS011;4958;48.150;11.506;2023-12-29T14:53:36;1.00;;;0.90;;
9838;SDS011;4958;48.150;11.506;2023-12-29T14:56:03;1.20;;;1.10;;
9838;SDS011;4958;48.150;11.506;2023-12-29T14:58:34;1.03;;;0.87;;
9838;SDS011;4958;48.150;11.506;2023-12-29T15:01:10;1.73;;;0.93;;
9838;SDS011;4958;48.150;11.506;2023-12-29T15:03:37;0.93;;;0.93;;
9838;SDS011;4958;48.150;11.506;2023-12-29T15:06:04;2.47;;;2.20;;
9838;SDS011;4958;48.150;11.506;2023-12-29T15:08:33;1.23;;;1.13;;
9838;SDS011;4958;48.150;11.506;2023-12-29T15:11:14;1.17;;;1.00;;
9838;SDS011;4958;48.150;11.506;2023-12-29T15:13:41;1.20;;;1.10;;
9838;SDS011;4958;48.150;11.506;2023-12-29T15:16:13;1.20;;;1.10;;
9838;SDS011;4958;48.150;11.506;2023-12-29T15:18:39;1.40;;;1.30;;
9838;SDS011;4958;48.150;11.506;2023-12-29T15:21:19;1.17;;;1.00;;
9838;SDS011;4958;48.150;11.506;2023-12-29T15:23:46;1.13;;;1.03;;
9838;SDS011;4958;48.150;11.506;2023-12-29T15:26:37;1.10;;;1.00;;
9838;SDS011;4958;48.150;11.506;2023-12-29T15:29:04;1.23;;;1.10;;
9838;SDS011;4958;48.150;11.506;2023-12-29T15:31:33;1.40;;;1.30;;
9838;SDS011;4958;48.150;11.506;2023-12-29T15:34:13;1.03;;;0.93;;
9838;SDS011;4958;48.150;11.506;2023-12-29T15:36:40;1.30;;;1.20;;
9838;SDS011;4958;48.150;11.506;2023-12-29T15:39:07;1.20;;;1.00;;
9838;SDS011;4958;48.150;11.506;2023-12-29T15:41:33;1.00;;;0.90;;
9838;SDS011;4958;48.150;11.506;2023-12-29T15:44:01;2.80;;;2.60;;
9838;SDS011;4958;48.150;11.506;2023-12-29T15:46:28;1.07;;;0.97;;
9838;SDS011;4958;48.150;11.506;2023-12-29T15:49:10;2.23;;;1.20;;
9838;SDS011;4958;48.150;11.506;2023-12-29T15:51:37;0.90;;;0.90;;
9838;SDS011;4958;48.150;11.506;2023-12-29T15:54:03;1.20;;;1.10;;
9838;SDS011;4958;48.150;11.506;2023-12-29T15:56:44;2.40;;;1.00;;
9838;SDS011;4958;48.150;11.506;2023-12-29T15:59:10;1.10;;;1.00;;
9838;SDS011;4958;48.150;11.506;2023-12-29T16:01:37;4.03;;;1.10;;
9838;SDS011;4958;48.150;11.506;2023-12-29T16:04:03;1.23;;;1.13;;
9838;SDS011;4958;48.150;11.506;2023-12-29T16:06:35;1.23;;;1.13;;
9838;SDS011;4958;48.150;11.506;2023-12-29T16:09:11;1.97;;;1.20;;
9838;SDS011;4958;48.150;11.506;2023-12-29T16:11:48;2.07;;;1.40;;
9838;SDS011;4958;48.150;11.506;2023-12-29T16:14:24;2.27;;;1.13;;
9838;SDS011;4958;48.150;11.506;2023-12-29T16:16:53;1.33;;;1.10;;
9838;SDS011;4958;48.150;11.506;2023-12-29T16:19:19;1.40;;;1.13;;
9838;SDS011;4958;48.150;11.506;2023-12-29T16:21:57;1.30;;;1.20;;
9838;SDS011;4958;48.150;11.506;2023-12-29T16:24:30;1.53;;;1.20;;
9838;SDS011;4958;48.150;11.506;2023-12-29T16:26:56;1.40;;;1.30;;
9838;SDS011;4958;48.150;11.506;2023-12-29T16:29:24;1.30;;;1.20;;
9838;SDS011;4958;48.150;11.506;2023-12-29T16:32:03;1.33;;;1.23;;
9838;SDS011;4958;48.150;11.506;2023-12-29T16:34:34;2.30;;;1.40;;
9838;SDS011;4958;48.150;11.506;2023-12-29T16:37:25;1.93;;;1.47;;
9838;SDS011;4958;48.150;11.506;2023-12-29T16:39:52;2.20;;;1.70;;
9838;SDS011;4958;48.150;11.506;2023-12-29T16:42:19;2.00;;;1.43;;
9838;SDS011;4958;48.150;11.506;2023-12-29T16:44:49;2.00;;;1.80;;
9838;SDS011;4958;48.150;11.506;2023-12-29T16:47:36;2.30;;;2.10;;
9838;SDS011;4958;48.150;11.506;2023-12-29T16:50:05;3.60;;;1.77;;
9838;SDS011;4958;48.150;11.506;2023-12-29T16:52:37;2.37;;;1.57;;
9838;SDS011;4958;48.150;11.506;2023-12-29T16:55:11;2.77;;;1.50;;
9838;SDS011;4958;48.150;11.506;2023-12-29T16:57:39;1.60;;;1.50;;
9838;SDS011;4958;48.150;11.506;2023-12-29T17:00:06;2.17;;;1.40;;
9838;SDS011;4958;48.150;11.506;2023-12-29T17:02:35;1.70;;;1.50;;
9838;SDS011;4958;48.150;11.506;2023-12-29T17:05:05;3.53;;;1.80;;
9838;SDS011;4958;48.150;11.506;2023-12-29T17:07:35;4.47;;;2.03;;
9838;SDS011;4958;48.150;11.506;2023-12-29T17:10:01;2.10;;;1.60;;
9838;SDS011;4958;48.150;11.506;2023-12-29T17:12:28;2.30;;;2.03;;
9838;SDS011;4958;48.150;11.506;2023-12-29T17:14:54;2.00;;;1.80;;
9838;SDS011;4958;48.150;11.506;2023-12-29T17:17:37;2.97;;;2.00;;
9838;SDS011;4958;48.150;11.506;2023-12-29T17:20:04;2.40;;;2.20;;
9838;SDS011;4958;48.150;11.506;2023-12-29T17:22:36;2.97;;;2.30;;
9838;SDS011;4958;48.150;11.506;2023-12-29T17:25:06;2.20;;;1.90;;
9838;SDS011;4958;48.150;11.506;2023-12-29T17:27:40;2.03;;;1.83;;
9838;SDS011;4958;48.150;11.506;2023-12-29T17:30:14;4.43;;;2.10;;
9838;SDS011;4958;48.150;11.506;2023-12-29T17:33:06;2.57;;;1.97;;
9838;SDS011;4958;48.150;11.506;2023-12-29T17:35:34;2.37;;;2.10;;
9838;SDS011;4958;48.150;11.506;2023-12-29T17:38:06;2.33;;;2.10;;
9838;SDS011;4958;48.150;11.506;2023-12-29T17:40:41;2.83;;;2.13;;
9838;SDS011;4958;48.150;11.506;2023-12-29T17:43:08;5.00;;;2.77;;
9838;SDS011;4958;48.150;11.506;2023-12-29T17:45:57;3.77;;;2.70;;
9838;SDS011;4958;48.150;11.506;2023-12-29T17:48:28;3.10;;;2.80;;
9838;SDS011;4958;48.150;11.506;2023-12-29T17:50:55;4.07;;;2.77;;
9838;SDS011;4958;48.150;11.506;2023-12-29T17:53:23;4.47;;;2.80;;
9838;SDS011;4958;48.150;11.506;2023-12-29T17:55:55;5.77;;;3.33;;
9838;SDS011;4958;48.150;11.506;2023-12-29T17:58:27;5.07;;;3.60;;
9838;SDS011;4958;48.150;11.506;2023-12-29T18:00:53;3.87;;;2.80;;
9838;SDS011;4958;48.150;11.506;2023-12-29T18:03:20;4.50;;;2.90;;
9838;SDS011;4958;48.150;11.506;2023-12-29T18:05:46;5.13;;;3.37;;
9838;SDS011;4958;48.150;11.506;2023-12-29T18:08:23;3.13;;;2.77;;
9838;SDS011;4958;48.150;11.506;2023-12-29T18:10:57;3.83;;;3.03;;
9838;SDS011;4958;48.150;11.506;2023-12-29T18:13:25;3.37;;;2.53;;
9838;SDS011;4958;48.150;11.506;2023-12-29T18:16:00;3.30;;;2.77;;
9838;SDS011;4958;48.150;11.506;2023-12-29T18:18:26;3.87;;;2.67;;
9838;SDS011;4958;48.150;11.506;2023-12-29T18:20:54;3.60;;;2.63;;
9838;SDS011;4958;48.150;11.506;2023-12-29T18:23:20;3.00;;;2.63;;
9838;SDS011;4958;48.150;11.506;2023-12-29T18:25:48;5.00;;;3.10;;
9838;SDS011;4958;48.150;11.506;2023-12-29T18:28:24;4.83;;;3.23;;
9838;SDS011;4958;48.150;11.506;2023-12-29T18:31:04;3.40;;;3.10;;
9838;SDS011;4958;48.150;11.506;2023-12-29T18:36:53;3.50;;;3.10;;
9838;SDS011;4958;48.150;11.506;2023-12-29T18:39:24;5.90;;;3.50;;
9838;SDS011;4958;48.150;11.506;2023-12-29T18:42:01;3.73;;;3.40;;
9838;SDS011;4958;48.150;11.506;2023-12-29T18:44:29;4.60;;;3.80;;
9838;SDS011;4958;48.150;11.506;2023-12-29T18:46:56;6.20;;;3.73;;
9838;SDS011;4958;48.150;11.506;2023-12-29T18:49:39;5.30;;;3.37;;
9838;SDS011;4958;48.150;11.506;2023-12-29T18:52:06;4.90;;;3.87;;
9838;SDS011;4958;48.150;11.506;2023-12-29T18:54:32;4.13;;;3.57;;
9838;SDS011;4958;48.150;11.506;2023-12-29T18:57:02;4.20;;;3.57;;
9838;SDS011;4958;48.150;11.506;2023-12-29T18:59:29;6.10;;;3.97;;
9838;SDS011;4958;48.150;11.506;2023-12-29T19:01:56;4.20;;;3.80;;
9838;SDS011;4958;48.150;11.506;2023-12-29T19:04:41;4.77;;;3.93;;
9838;SDS011;4958;48.150;11.506;2023-12-29T19:07:08;4.33;;;3.80;;
9838;SDS011;4958;48.150;11.506;2023-12-29T19:09:35;4.63;;;4.23;;